Time;durP1;ratioP1;P1;durP2;ratioP2;P2;SDS_P1;SDS_P2;PMS_P1;PMS_P2;Temp;Humidity;BMP_temperature;BMP_pressure;BME280_temperature;BME280_humidity;BME280_pressure;Samples;Min_cycle;Max_cycle;Signal;HPM_P1;HPM_P2
2023/08/08 00:00:37;;;;;;;10.48;6.45;;;13.10;99.90;;;;;;4943597;28;20133;-87
2023/08/08 00:03:02;;;;;;;9.88;3.40;;;13.20;99.90;;;;;;4977775;28;20049;-87
2023/08/08 00:05:28;;;;;;;10.30;3.03;;;13.20;99.90;;;;;;4961827;28;20049;-87
2023/08/08 00:07:54;;;;;;;5.47;2.35;;;13.10;99.90;;;;;;4976463;28;20512;-87
2023/08/08 00:10:19;;;;;;;9.00;3.03;;;13.10;99.90;;;;;;4961786;28;20042;-86
2023/08/08 00:12:45;;;;;;;8.95;2.83;;;13.10;99.90;;;;;;4977706;28;20519;-86
2023/08/08 00:15:10;;;;;;;7.65;2.88;;;13.10;99.90;;;;;;4961714;28;20125;-86
2023/08/08 00:17:36;;;;;;;10.23;3.47;;;13.00;99.90;;;;;;4977468;28;20514;-86
2023/08/08 00:20:02;;;;;;;8.07;2.90;;;13.10;99.90;;;;;;4995072;28;20089;-86
2023/08/08 00:22:29;;;;;;;7.18;2.65;;;13.00;99.90;;;;;;4977693;28;20043;-86
2023/08/08 00:24:54;;;;;;;13.02;5.70;;;13.10;99.90;;;;;;4977265;28;20121;-86
2023/08/08 00:27:20;;;;;;;6.25;2.35;;;13.10;99.90;;;;;;4977035;28;20129;-86
2023/08/08 00:29:46;;;;;;;7.47;2.53;;;13.20;99.90;;;;;;4977408;28;20096;-86
2023/08/08 00:32:11;;;;;;;6.65;2.55;;;13.10;99.90;;;;;;4961036;28;20480;-86
2023/08/08 00:34:37;;;;;;;6.85;2.88;;;13.10;99.90;;;;;;4961197;28;20045;-87
2023/08/08 00:37:03;;;;;;;7.55;2.58;;;13.10;99.90;;;;;;4960923;28;20069;-86
2023/08/08 00:39:28;;;;;;;9.13;5.75;;;13.10;99.90;;;;;;4977264;28;20096;-87
2023/08/08 00:41:54;;;;;;;7.90;3.40;;;13.20;99.90;;;;;;4977120;28;20437;-86
2023/08/08 00:44:19;;;;;;;7.80;3.35;;;13.20;99.90;;;;;;4976754;28;20126;-86
2023/08/08 00:46:45;;;;;;;8.18;3.20;;;13.20;99.90;;;;;;4976568;28;20116;-86
2023/08/08 00:49:11;;;;;;;7.82;2.90;;;13.20;99.90;;;;;;4976916;28;20038;-87
2023/08/08 00:51:37;;;;;;;11.18;6.20;;;13.20;99.90;;;;;;4976747;28;20049;-86
2023/08/08 00:54:04;;;;;;;8.65;3.13;;;13.20;99.90;;;;;;4976593;28;20050;-86
2023/08/08 00:56:31;;;;;;;10.68;3.50;;;13.30;99.90;;;;;;4960589;28;20185;-86
2023/08/08 00:58:57;;;;;;;7.55;2.80;;;13.30;99.90;;;;;;4976929;28;20070;-86
2023/08/08 01:01:22;;;;;;;6.72;3.00;;;13.30;99.90;;;;;;4977169;28;20492;-87
2023/08/08 01:03:48;;;;;;;8.70;3.30;;;13.30;99.90;;;;;;4976867;28;20046;-87
2023/08/08 01:06:28;;;;;;;8.80;3.63;;;13.40;99.90;;;;;;4976236;28;20049;-87
2023/08/08 01:09:15;;;;;;;9.52;6.18;;;13.40;99.90;;;;;;4976555;28;20044;-87
2023/08/08 01:11:41;;;;;;;6.75;3.03;;;13.50;99.90;;;;;;4976489;28;20038;-87
2023/08/08 01:14:09;;;;;;;11.05;3.15;;;13.50;99.90;;;;;;4960222;28;20042;-87
2023/08/08 01:16:34;;;;;;;12.25;6.90;;;13.50;99.90;;;;;;4976179;28;20046;-87
2023/08/08 01:19:01;;;;;;;13.02;7.22;;;13.50;99.90;;;;;;4960121;28;20046;-87
2023/08/08 01:21:29;;;;;;;7.45;2.80;;;13.60;99.90;;;;;;4976702;28;20052;-87
2023/08/08 01:24:15;;;;;;;7.55;3.33;;;13.60;99.90;;;;;;4976551;28;20221;-87
2023/08/08 01:26:41;;;;;;;8.50;3.00;;;13.60;99.90;;;;;;4945189;28;20042;-87
2023/08/08 01:29:07;;;;;;;6.93;2.90;;;13.60;99.90;;;;;;4976166;28;20042;-87
2023/08/08 01:31:32;;;;;;;6.80;3.13;;;13.60;99.90;;;;;;4963187;28;20045;-85
2023/08/08 01:33:58;;;;;;;8.23;3.75;;;13.60;99.90;;;;;;4982907;28;20394;-86
2023/08/08 01:36:55;;;;;;;9.02;3.58;;;13.70;99.90;;;;;;4978084;28;20045;-87
2023/08/08 01:39:27;;;;;;;8.23;3.65;;;13.70;99.90;;;;;;4977153;28;20046;-87
2023/08/08 01:41:58;;;;;;;9.68;3.33;;;13.70;99.90;;;;;;4976711;28;20101;-87
2023/08/08 01:44:25;;;;;;;12.63;6.75;;;13.70;99.90;;;;;;4960204;28;20042;-87
2023/08/08 01:46:52;;;;;;;7.97;3.20;;;13.80;99.90;;;;;;4975914;28;20089;-88
2023/08/08 01:49:17;;;;;;;11.10;6.70;;;13.80;99.90;;;;;;4960026;28;20038;-87
2023/08/08 01:51:43;;;;;;;13.18;6.70;;;13.80;99.90;;;;;;4975662;28;20046;-87
2023/08/08 01:54:08;;;;;;;9.85;3.15;;;13.90;99.90;;;;;;4959778;28;20057;-87
2023/08/08 01:56:34;;;;;;;9.00;3.33;;;13.90;99.90;;;;;;4975590;28;20082;-87
2023/08/08 01:59:00;;;;;;;10.27;3.45;;;13.90;99.90;;;;;;4975837;28;20042;-87
2023/08/08 02:01:25;;;;;;;9.38;4.05;;;13.90;99.90;;;;;;4975556;28;20046;-87
2023/08/08 02:03:51;;;;;;;11.38;3.50;;;13.90;99.90;;;;;;4976028;28;20034;-87
2023/08/08 02:06:17;;;;;;;9.68;4.18;;;13.90;99.90;;;;;;4975856;28;20499;-88
2023/08/08 02:08:42;;;;;;;8.43;3.85;;;13.90;99.90;;;;;;4975319;28;20083;-87
2023/08/08 02:11:08;;;;;;;7.88;3.28;;;13.90;99.90;;;;;;4959451;28;20404;-87
2023/08/08 02:13:33;;;;;;;11.60;6.43;;;13.90;99.90;;;;;;4975298;28;20038;-87
2023/08/08 02:15:59;;;;;;;7.88;3.35;;;14.00;99.90;;;;;;4992943;28;20041;-87
2023/08/08 02:18:25;;;;;;;10.25;3.30;;;14.00;99.90;;;;;;4959098;28;20038;-87
2023/08/08 02:20:50;;;;;;;10.52;3.58;;;14.00;99.90;;;;;;4975592;28;20582;-87
2023/08/08 02:23:16;;;;;;;11.75;6.45;;;14.00;99.90;;;;;;4975355;28;20072;-87
2023/08/08 02:25:41;;;;;;;13.77;7.68;;;14.00;99.90;;;;;;4975456;28;20427;-86
2023/08/08 02:28:07;;;;;;;9.68;3.50;;;14.10;99.90;;;;;;4975126;28;20129;-87
2023/08/08 02:30:32;;;;;;;10.68;3.83;;;14.10;99.90;;;;;;4975562;28;20046;-87
2023/08/08 02:32:58;;;;;;;14.65;4.55;;;14.10;99.90;;;;;;4979677;28;20034;-87
2023/08/08 02:35:24;;;;;;;13.57;7.18;;;14.00;99.90;;;;;;4979295;28;20530;-87
2023/08/08 02:37:49;;;;;;;12.07;4.35;;;14.10;99.90;;;;;;4979000;28;20050;-87
2023/08/08 02:40:15;;;;;;;13.00;7.13;;;14.10;99.90;;;;;;4979473;28;20053;-87
2023/08/08 02:42:40;;;;;;;9.98;4.03;;;14.20;99.90;;;;;;4979506;28;20041;-87
2023/08/08 02:45:06;;;;;;;8.68;3.40;;;14.20;99.90;;;;;;4979064;28;20096;-87
2023/08/08 02:47:32;;;;;;;11.88;4.03;;;14.10;99.90;;;;;;4962756;28;20065;-87
2023/08/08 02:49:57;;;;;;;13.57;6.90;;;14.10;99.90;;;;;;4979255;28;20042;-87
2023/08/08 02:52:23;;;;;;;9.15;4.03;;;14.10;99.90;;;;;;4963026;28;20042;-87
2023/08/08 02:54:49;;;;;;;11.23;3.38;;;14.20;99.90;;;;;;4962942;28;20034;-87
2023/08/08 02:57:14;;;;;;;9.18;3.90;;;14.20;99.90;;;;;;4978674;28;20431;-87
2023/08/08 02:59:40;;;;;;;9.65;3.22;;;14.20;99.90;;;;;;4979002;28;20081;-87
2023/08/08 03:02:06;;;;;;;13.13;6.82;;;14.20;99.90;;;;;;4996542;28;20113;-87
2023/08/08 03:04:31;;;;;;;7.55;2.85;;;14.20;99.90;;;;;;4978713;28;20049;-87
2023/08/08 03:06:57;;;;;;;14.90;7.63;;;14.20;99.90;;;;;;4978318;28;20042;-87
2023/08/08 03:09:22;;;;;;;16.38;7.80;;;14.20;99.90;;;;;;4978490;28;20101;-87
2023/08/08 03:11:48;;;;;;;13.95;7.90;;;14.20;99.90;;;;;;4962524;28;20042;-87
2023/08/08 03:14:14;;;;;;;13.52;3.05;;;14.30;99.90;;;;;;4962638;28;20050;-87
2023/08/08 03:16:39;;;;;;;9.40;3.53;;;14.20;99.90;;;;;;4978458;28;20042;-87
2023/08/08 03:19:05;;;;;;;13.93;7.95;;;14.10;99.90;;;;;;4978472;28;20104;-87
2023/08/08 03:21:31;;;;;;;10.32;3.65;;;14.20;99.90;;;;;;4962214;28;20050;-87
2023/08/08 03:23:57;;;;;;;8.50;3.40;;;14.10;99.90;;;;;;4978494;28;20038;-87
2023/08/08 03:26:23;;;;;;;13.20;7.10;;;14.10;99.90;;;;;;4962023;28;20046;-87
2023/08/08 03:28:53;;;;;;;15.88;7.47;;;14.10;99.90;;;;;;4978484;28;20030;-87
2023/08/08 03:31:19;;;;;;;12.93;3.45;;;14.10;99.90;;;;;;4962023;28;20172;-88
2023/08/08 03:33:45;;;;;;;13.30;6.80;;;14.10;99.90;;;;;;4962111;28;20088;-87
2023/08/08 03:36:10;;;;;;;15.38;7.00;;;14.10;99.90;;;;;;4978288;28;20038;-87
2023/08/08 03:38:37;;;;;;;12.02;6.97;;;14.10;99.90;;;;;;4977761;28;20042;-87
2023/08/08 03:41:03;;;;;;;8.02;2.92;;;14.10;99.90;;;;;;4962132;28;20138;-87
2023/08/08 03:43:29;;;;;;;7.05;2.95;;;14.10;99.90;;;;;;4977815;28;20070;-87
2023/08/08 03:45:55;;;;;;;10.52;3.67;;;14.10;99.90;;;;;;4978009;28;20070;-87
2023/08/08 03:48:20;;;;;;;12.07;3.85;;;14.10;99.90;;;;;;4977926;28;20049;-87
2023/08/08 03:50:46;;;;;;;6.72;2.88;;;14.00;99.90;;;;;;4977852;28;20042;-87
2023/08/08 03:53:12;;;;;;;14.15;7.07;;;14.00;99.90;;;;;;4961945;28;20042;-88
2023/08/08 03:55:38;;;;;;;9.38;3.00;;;14.00;99.90;;;;;;4978081;28;20066;-87
2023/08/08 03:58:05;;;;;;;11.00;3.55;;;14.00;99.90;;;;;;4977602;28;20120;-87
2023/08/08 04:00:31;;;;;;;13.05;5.88;;;13.90;99.90;;;;;;4977755;28;20101;-87
2023/08/08 04:02:56;;;;;;;13.27;5.60;;;13.90;99.90;;;;;;4978006;28;20034;-87
2023/08/08 04:05:22;;;;;;;11.02;3.38;;;13.90;99.90;;;;;;4977642;28;20471;-87
2023/08/08 04:07:47;;;;;;;8.38;3.10;;;13.90;99.90;;;;;;4977218;28;20082;-87
2023/08/08 04:10:13;;;;;;;10.15;3.15;;;13.80;99.90;;;;;;4961857;28;20125;-87
2023/08/08 04:12:39;;;;;;;7.93;2.83;;;13.80;99.90;;;;;;4961632;28;20038;-87
2023/08/08 04:15:05;;;;;;;14.45;6.03;;;13.70;99.90;;;;;;4961627;28;20034;-87
2023/08/08 04:17:30;;;;;;;8.30;2.63;;;13.70;99.90;;;;;;4961109;28;20101;-87
2023/08/08 04:19:56;;;;;;;12.48;5.18;;;13.70;99.90;;;;;;4961691;28;20046;-87
2023/08/08 04:22:22;;;;;;;12.60;3.58;;;13.70;99.90;;;;;;4977701;28;20465;-87
2023/08/08 04:24:48;;;;;;;8.88;3.17;;;13.60;99.90;;;;;;4977530;28;20042;-86
2023/08/08 04:27:13;;;;;;;8.90;3.05;;;13.60;99.90;;;;;;4977150;28;20039;-86
2023/08/08 04:29:39;;;;;;;14.30;6.20;;;13.50;99.90;;;;;;4977585;28;20389;-87
2023/08/08 04:32:05;;;;;;;9.35;3.33;;;13.60;99.90;;;;;;4977209;28;20125;-86
2023/08/08 04:34:30;;;;;;;7.35;2.60;;;13.50;99.90;;;;;;4961054;28;20042;-86
2023/08/08 04:36:56;;;;;;;9.10;3.00;;;13.50;99.90;;;;;;4976710;28;20129;-87
2023/08/08 04:39:21;;;;;;;11.32;3.03;;;13.40;99.90;;;;;;4960895;28;20038;-86
2023/08/08 04:41:47;;;;;;;10.07;3.58;;;13.40;99.90;;;;;;4977256;28;20045;-87
2023/08/08 04:44:13;;;;;;;12.93;6.15;;;13.40;99.90;;;;;;4976951;28;20581;-87
2023/08/08 04:46:38;;;;;;;12.18;3.13;;;13.40;99.90;;;;;;4960737;28;20039;-87
2023/08/08 04:49:04;;;;;;;13.27;5.57;;;13.40;99.90;;;;;;4977220;28;20045;-87
2023/08/08 04:51:29;;;;;;;9.07;3.00;;;13.40;99.90;;;;;;4976811;28;20041;-87
2023/08/08 04:53:55;;;;;;;11.57;5.30;;;13.40;99.90;;;;;;4976303;28;20035;-87
2023/08/08 04:56:20;;;;;;;8.75;2.90;;;13.40;99.90;;;;;;4976663;28;20042;-86
2023/08/08 04:58:46;;;;;;;8.48;2.65;;;13.50;99.90;;;;;;4960789;28;20042;-87
2023/08/08 05:01:14;;;;;;;11.80;3.15;;;13.40;99.90;;;;;;4960757;28;20522;-87
2023/08/08 05:03:40;;;;;;;9.07;2.28;;;13.40;99.90;;;;;;4960565;28;20038;-87
2023/08/08 05:06:05;;;;;;;6.47;2.35;;;13.40;99.90;;;;;;4976484;28;20041;-86
2023/08/08 05:08:31;;;;;;;9.85;2.35;;;13.50;99.90;;;;;;4973017;28;20126;-87
2023/08/08 05:10:57;;;;;;;8.75;2.92;;;13.50;99.90;;;;;;4959215;28;20046;-87
2023/08/08 05:13:22;;;;;;;13.88;2.85;;;13.60;99.90;;;;;;4975474;28;20043;-87
2023/08/08 05:15:48;;;;;;;10.35;2.53;;;13.60;99.90;;;;;;4959031;28;20579;-86
2023/08/08 05:18:14;;;;;;;6.68;2.17;;;13.60;99.90;;;;;;4958400;28;20042;-87
2023/08/08 05:20:39;;;;;;;8.15;2.67;;;13.70;99.90;;;;;;4958888;28;20077;-87
2023/08/08 05:23:05;;;;;;;8.93;2.40;;;13.80;99.90;;;;;;4959213;28;20411;-86
2023/08/08 05:25:31;;;;;;;9.60;3.72;;;13.90;99.90;;;;;;4975143;28;20078;-86
2023/08/08 05:27:56;;;;;;;7.20;2.03;;;14.00;99.90;;;;;;4974484;28;20444;-87
2023/08/08 05:30:22;;;;;;;7.10;2.60;;;14.10;99.90;;;;;;4969941;28;20031;-87
2023/08/08 05:32:48;;;;;;;5.68;2.17;;;14.10;99.90;;;;;;4955595;28;20038;-87
2023/08/08 05:35:13;;;;;;;8.82;3.50;;;14.20;99.90;;;;;;4955895;28;20129;-87
2023/08/08 05:37:39;;;;;;;7.15;2.35;;;14.30;99.90;;;;;;4938918;28;20048;-87
2023/08/08 05:40:06;;;;;;;7.72;1.75;;;14.30;99.90;;;;;;4939632;28;20046;-87
2023/08/08 05:42:32;;;;;;;7.05;1.80;;;14.40;99.90;;;;;;4955552;28;20047;-87
2023/08/08 05:44:58;;;;;;;10.50;1.90;;;14.40;99.90;;;;;;4939888;28;20039;-87
2023/08/08 05:47:23;;;;;;;4.45;1.48;;;14.40;99.90;;;;;;4955399;28;20142;-86
2023/08/08 05:49:49;;;;;;;8.88;1.88;;;14.50;99.90;;;;;;4955388;28;20133;-86
2023/08/08 05:52:14;;;;;;;11.05;2.72;;;14.50;99.90;;;;;;4938604;28;20039;-87
2023/08/08 05:54:40;;;;;;;10.55;2.88;;;14.60;99.90;;;;;;4955286;28;20595;-88
2023/08/08 05:57:06;;;;;;;3.17;0.88;;;14.60;99.90;;;;;;4939461;28;20043;-88
2023/08/08 05:59:32;;;;;;;4.88;1.55;;;14.60;99.90;;;;;;4939646;28;20039;-88
2023/08/08 06:01:58;;;;;;;9.05;2.35;;;14.60;99.90;;;;;;4939290;28;20061;-88
2023/08/08 06:04:24;;;;;;;4.55;1.30;;;14.70;99.90;;;;;;4939166;28;20133;-88
2023/08/08 06:06:50;;;;;;;9.60;2.30;;;14.60;99.90;;;;;;4954138;28;20575;-88
2023/08/08 06:09:16;;;;;;;3.80;1.20;;;14.70;99.90;;;;;;4940049;28;20125;-88
2023/08/08 06:11:42;;;;;;;8.98;2.33;;;14.60;99.90;;;;;;4939530;28;20093;-88
2023/08/08 06:14:08;;;;;;;6.82;1.52;;;14.70;99.90;;;;;;4939650;28;20121;-89
2023/08/08 06:16:33;;;;;;;6.28;1.90;;;14.70;99.90;;;;;;4955482;28;20057;-86
2023/08/08 06:18:59;;;;;;;5.28;1.15;;;14.60;99.90;;;;;;4955341;28;20051;-87
2023/08/08 06:21:25;;;;;;;6.80;1.50;;;14.60;99.90;;;;;;4939177;28;20043;-85
2023/08/08 06:23:53;;;;;;;11.95;2.70;;;14.70;99.90;;;;;;4954663;28;20054;-88
2023/08/08 06:26:20;;;;;;;10.00;2.60;;;14.80;99.90;;;;;;4954305;28;20046;-88
2023/08/08 06:28:47;;;;;;;5.13;1.27;;;14.90;99.90;;;;;;4939267;28;20218;-89
2023/08/08 06:31:13;;;;;;;7.80;1.67;;;14.90;99.90;;;;;;4955127;28;20042;-88
2023/08/08 06:33:39;;;;;;;10.82;2.35;;;15.00;99.90;;;;;;4938661;28;20492;-88
2023/08/08 06:36:05;;;;;;;9.15;2.40;;;15.00;99.90;;;;;;4954729;28;20043;-88
2023/08/08 06:38:33;;;;;;;5.65;1.88;;;15.10;99.90;;;;;;4938749;28;20054;-88
2023/08/08 06:41:02;;;;;;;4.32;1.30;;;15.10;99.90;;;;;;4954470;28;20046;-88
2023/08/08 06:43:28;;;;;;;8.63;2.05;;;15.20;99.90;;;;;;4954260;28;20090;-89
2023/08/08 06:45:55;;;;;;;4.43;1.40;;;15.20;99.90;;;;;;4954250;28;20082;-88
2023/08/08 06:48:20;;;;;;;8.90;1.73;;;15.30;99.90;;;;;;4954961;28;20412;-88
2023/08/08 06:50:46;;;;;;;10.90;2.45;;;15.30;99.90;;;;;;4955588;28;20502;-89
2023/08/08 06:53:12;;;;;;;10.02;2.72;;;15.40;99.90;;;;;;4954901;28;20038;-88
2023/08/08 06:55:37;;;;;;;8.65;2.13;;;15.50;99.90;;;;;;4939170;28;20038;-88
2023/08/08 06:58:03;;;;;;;11.23;2.65;;;15.60;99.90;;;;;;4939040;28;20137;-88
2023/08/08 07:00:29;;;;;;;6.05;1.15;;;15.60;99.90;;;;;;4938914;28;20129;-89
2023/08/08 07:02:55;;;;;;;5.97;1.40;;;15.60;99.90;;;;;;4938326;28;20047;-89
2023/08/08 07:05:22;;;;;;;5.65;1.40;;;15.70;99.90;;;;;;4972012;28;20031;-89
2023/08/08 07:07:49;;;;;;;4.50;1.02;;;15.80;99.90;;;;;;4953974;28;20504;-89
2023/08/08 07:10:15;;;;;;;10.15;2.08;;;15.80;99.90;;;;;;4939914;28;20504;-89
2023/08/08 07:12:41;;;;;;;4.60;0.95;;;15.90;99.90;;;;;;4938902;28;20046;-88
2023/08/08 07:15:08;;;;;;;9.05;1.92;;;16.00;99.90;;;;;;4939288;28;20043;-89
2023/08/08 07:17:34;;;;;;;10.98;2.25;;;16.10;99.90;;;;;;4956219;28;20046;-87
2023/08/08 07:20:00;;;;;;;8.90;2.08;;;16.20;99.90;;;;;;4942247;28;20046;-88
2023/08/08 07:22:25;;;;;;;4.80;1.33;;;16.20;99.90;;;;;;4942076;28;20048;-88
2023/08/08 07:24:51;;;;;;;10.07;2.00;;;16.20;99.90;;;;;;4958667;28;20492;-88
2023/08/08 07:27:19;;;;;;;10.30;1.90;;;16.20;99.90;;;;;;4957429;28;20556;-88
2023/08/08 07:29:48;;;;;;;9.07;2.22;;;16.30;99.90;;;;;;4942700;28;20078;-87
2023/08/08 07:32:17;;;;;;;9.27;2.00;;;16.40;99.90;;;;;;4975288;28;20062;-88
2023/08/08 07:34:42;;;;;;;8.20;2.00;;;16.50;99.90;;;;;;4957501;28;20077;-88
2023/08/08 07:37:08;;;;;;;4.28;0.90;;;16.50;99.90;;;;;;4957936;28;20081;-88
2023/08/08 07:39:34;;;;;;;8.23;1.70;;;16.40;99.90;;;;;;4958599;28;20158;-88
2023/08/08 07:41:59;;;;;;;7.75;2.10;;;16.50;99.90;;;;;;4957729;28;20046;-88
2023/08/08 07:44:25;;;;;;;7.57;1.27;;;16.60;99.90;;;;;;4957845;28;20432;-87
2023/08/08 07:46:50;;;;;;;4.82;1.02;;;16.70;99.90;;;;;;4957446;28;20160;-87
2023/08/08 07:49:16;;;;;;;9.05;1.70;;;16.70;99.90;;;;;;4942329;28;20404;-87
2023/08/08 07:51:42;;;;;;;6.95;1.90;;;16.80;99.90;;;;;;4958370;28;20043;-88
2023/08/08 07:54:08;;;;;;;3.45;1.13;;;16.90;99.90;;;;;;4957803;28;20491;-88
2023/08/08 07:56:35;;;;;;;7.20;1.67;;;16.90;99.90;;;;;;4957753;28;20053;-88
2023/08/08 07:59:01;;;;;;;3.15;0.95;;;16.90;99.90;;;;;;4942313;28;20093;-88
2023/08/08 08:01:27;;;;;;;8.43;1.85;;;16.90;99.90;;;;;;4941566;28;20039;-88
2023/08/08 08:03:53;;;;;;;5.85;1.52;;;16.90;99.90;;;;;;4941263;28;20043;-88
2023/08/08 08:06:19;;;;;;;3.67;0.63;;;17.00;99.90;;;;;;4941384;28;20134;-88
2023/08/08 08:08:44;;;;;;;8.63;1.60;;;17.10;99.90;;;;;;4957352;28;20093;-88
2023/08/08 08:11:10;;;;;;;8.85;1.67;;;17.20;99.90;;;;;;4958978;28;20078;-87
2023/08/08 08:13:36;;;;;;;3.30;0.70;;;17.40;99.90;;;;;;4960554;28;20039;-88
2023/08/08 08:16:02;;;;;;;5.50;1.35;;;17.40;99.90;;;;;;4959442;28;20095;-88
2023/08/08 08:18:28;;;;;;;9.15;1.17;;;17.60;99.90;;;;;;4958849;28;20093;-88
2023/08/08 08:20:55;;;;;;;6.97;1.67;;;17.70;99.90;;;;;;4943284;28;20047;-88
2023/08/08 08:23:23;;;;;;;7.82;2.15;;;17.60;99.90;;;;;;4958404;28;20074;-88
2023/08/08 08:25:50;;;;;;;6.40;1.65;;;17.50;99.90;;;;;;4957991;28;20074;-88
2023/08/08 08:28:16;;;;;;;5.40;1.35;;;17.40;99.90;;;;;;4940083;28;20043;-88
2023/08/08 08:30:41;;;;;;;5.68;1.60;;;17.40;99.90;;;;;;4957630;28;20412;-88
2023/08/08 08:33:07;;;;;;;7.80;1.48;;;17.30;99.90;;;;;;4941062;28;20189;-88
2023/08/08 08:35:34;;;;;;;6.93;1.70;;;17.20;99.90;;;;;;4957427;28;20035;-88
2023/08/08 08:38:00;;;;;;;5.45;1.45;;;17.20;99.90;;;;;;4940072;28;20407;-88
2023/08/08 08:40:28;;;;;;;3.80;0.95;;;17.20;99.90;;;;;;4940989;28;20047;-88
2023/08/08 08:42:54;;;;;;;4.25;0.95;;;17.30;99.90;;;;;;4940310;28;20049;-88
2023/08/08 08:45:21;;;;;;;8.70;1.80;;;17.30;99.90;;;;;;4956394;28;20129;-88
2023/08/08 08:47:48;;;;;;;7.47;1.60;;;17.30;99.90;;;;;;4939850;28;20427;-88
2023/08/08 08:50:15;;;;;;;8.48;1.52;;;17.40;99.90;;;;;;4956557;28;20419;-88
2023/08/08 08:52:42;;;;;;;6.57;1.20;;;17.50;99.90;;;;;;4956396;28;20125;-88
2023/08/08 08:55:08;;;;;;;5.63;1.42;;;17.60;99.90;;;;;;4940251;28;20408;-88
2023/08/08 08:57:35;;;;;;;3.63;0.90;;;17.60;99.90;;;;;;4940252;28;20042;-88
2023/08/08 09:00:01;;;;;;;6.97;1.25;;;17.50;99.90;;;;;;4956771;28;20050;-88
2023/08/08 09:02:26;;;;;;;6.78;1.40;;;17.50;99.90;;;;;;4956624;28;20039;-89
2023/08/08 09:04:53;;;;;;;5.68;1.30;;;17.50;99.90;;;;;;4955746;28;20488;-88
2023/08/08 09:07:22;;;;;;;6.15;1.50;;;17.60;99.90;;;;;;4947519;28;20118;-89
2023/08/08 09:09:48;;;;;;;6.53;1.20;;;17.60;99.90;;;;;;4945563;28;20040;-89
2023/08/08 09:12:16;;;;;;;6.75;1.00;;;17.70;99.90;;;;;;4946061;28;20106;-88
2023/08/08 09:14:44;;;;;;;2.90;0.75;;;17.70;99.90;;;;;;4962872;28;20035;-88
2023/08/08 09:17:15;;;;;;;6.70;1.10;;;17.70;99.90;;;;;;4944838;28;20039;-89
2023/08/08 09:19:44;;;;;;;6.65;1.48;;;17.70;99.90;;;;;;4946430;28;20035;-88
2023/08/08 09:22:14;;;;;;;6.00;0.93;;;17.90;99.90;;;;;;4945667;28;20036;-88
2023/08/08 09:24:41;;;;;;;6.50;1.65;;;17.90;99.90;;;;;;4945433;28;20042;-89
2023/08/08 09:27:09;;;;;;;5.20;1.10;;;18.00;99.90;;;;;;4946489;28;20035;-88
2023/08/08 09:29:36;;;;;;;5.13;1.35;;;18.00;99.90;;;;;;4963243;28;20039;-89
2023/08/08 09:32:06;;;;;;;5.55;1.23;;;17.90;99.90;;;;;;4950699;28;20035;-89
2023/08/08 09:34:32;;;;;;;7.43;1.30;;;17.90;99.90;;;;;;4955185;28;20054;-89
2023/08/08 09:36:59;;;;;;;7.38;1.40;;;18.00;99.90;;;;;;4954407;28;20047;-89
2023/08/08 09:39:26;;;;;;;5.50;1.30;;;18.10;99.90;;;;;;4955942;28;20148;-89
2023/08/08 09:41:51;;;;;;;10.70;1.70;;;18.10;99.90;;;;;;4936540;28;20078;-88
2023/08/08 09:44:17;;;;;;;7.05;1.50;;;18.10;99.90;;;;;;4939332;28;20077;-88
2023/08/08 09:46:43;;;;;;;6.63;1.30;;;18.00;99.90;;;;;;4955322;28;20035;-88
2023/08/08 09:49:11;;;;;;;6.35;1.38;;;17.80;99.90;;;;;;4955234;28;20565;-88
2023/08/08 09:51:36;;;;;;;5.40;1.10;;;17.60;99.90;;;;;;4939351;28;20411;-88
2023/08/08 09:54:04;;;;;;;7.32;1.50;;;17.60;99.90;;;;;;4955053;28;20500;-89
2023/08/08 09:56:31;;;;;;;6.78;1.50;;;17.60;99.90;;;;;;4953920;28;20031;-89
2023/08/08 09:58:58;;;;;;;6.68;1.42;;;17.60;99.90;;;;;;4950918;28;20059;-88
2023/08/08 10:01:25;;;;;;;5.90;1.10;;;17.70;99.90;;;;;;4944728;28;20081;-89
2023/08/08 10:03:52;;;;;;;8.55;2.40;;;17.80;99.90;;;;;;4946098;28;20500;-88
2023/08/08 10:06:18;;;;;;;2.00;0.68;;;17.90;99.90;;;;;;4945272;28;20043;-88
2023/08/08 10:08:45;;;;;;;7.10;1.40;;;18.00;99.90;;;;;;4927955;28;20053;-88
2023/08/08 10:11:11;;;;;;;6.90;1.58;;;18.00;99.90;;;;;;4947710;28;20035;-87
2023/08/08 10:13:38;;;;;;;4.90;1.48;;;17.90;99.90;;;;;;4945819;28;20031;-88
2023/08/08 10:16:08;;;;;;;4.07;1.02;;;17.70;99.90;;;;;;4946026;28;20493;-88
2023/08/08 10:18:34;;;;;;;5.20;1.30;;;17.20;99.90;;;;;;4941756;28;20093;-89
2023/08/08 10:20:59;;;;;;;5.13;1.40;;;16.90;99.90;;;;;;4945043;28;20050;-89
2023/08/08 10:23:26;;;;;;;5.93;1.45;;;16.70;99.90;;;;;;4945997;28;20051;-88
2023/08/08 10:25:52;;;;;;;5.85;1.38;;;16.70;99.90;;;;;;4946357;28;20397;-88
2023/08/08 10:28:22;;;;;;;5.68;1.70;;;16.80;99.90;;;;;;4942895;29;20086;-88
2023/08/08 10:30:58;;;;;;;7.75;1.42;;;17.00;99.90;;;;;;4949042;28;20035;-88
2023/08/08 10:33:43;;;;;;;8.77;1.95;;;17.20;99.90;;;;;;4946196;28;20050;-88
2023/08/08 10:36:09;;;;;;;10.32;1.92;;;17.40;99.90;;;;;;4946390;28;20035;-88
2023/08/08 10:38:50;;;;;;;7.00;1.58;;;17.60;99.90;;;;;;4945478;28;20077;-89
2023/08/08 10:41:26;;;;;;;6.07;1.15;;;17.90;99.90;;;;;;4946479;28;20043;-89
2023/08/08 10:43:55;;;;;;;6.88;1.80;;;17.80;99.90;;;;;;4945741;28;20105;-89
2023/08/08 10:46:26;;;;;;;6.70;1.60;;;17.90;99.90;;;;;;4943273;28;20567;-88
2023/08/08 10:49:05;;;;;;;6.72;1.70;;;17.90;99.90;;;;;;4929706;28;20122;-88
2023/08/08 10:51:38;;;;;;;3.38;1.00;;;18.00;99.90;;;;;;4946566;28;20038;-88
2023/08/08 10:54:09;;;;;;;7.00;1.73;;;17.80;99.90;;;;;;4949982;28;20042;-88
2023/08/08 10:56:36;;;;;;;8.43;1.92;;;17.60;99.90;;;;;;4949506;28;20125;-88
2023/08/08 10:59:16;;;;;;;5.82;1.65;;;17.40;99.90;;;;;;4948283;28;20030;-89
2023/08/08 11:01:44;;;;;;;7.60;2.00;;;17.20;99.90;;;;;;4958173;28;20074;-88
2023/08/08 11:04:19;;;;;;;7.75;1.75;;;17.20;99.90;;;;;;4942779;28;20045;-89
2023/08/08 11:06:46;;;;;;;4.05;1.50;;;17.20;99.90;;;;;;4942034;28;20105;-89
2023/08/08 11:09:22;;;;;;;5.60;1.40;;;17.00;99.90;;;;;;4958305;28;20097;-90
2023/08/08 11:11:48;;;;;;;5.43;1.67;;;17.20;99.90;;;;;;4958788;28;20532;-89
2023/08/08 11:14:19;;;;;;;7.45;1.83;;;17.30;99.90;;;;;;4959139;28;20456;-89
2023/08/08 11:16:46;;;;;;;4.38;1.10;;;17.40;99.90;;;;;;4941674;28;20384;-89
2023/08/08 11:19:12;;;;;;;4.68;1.35;;;17.40;99.90;;;;;;4948069;28;20500;-88
2023/08/08 11:21:41;;;;;;;7.63;1.83;;;17.50;99.90;;;;;;4949588;28;21054;-89
2023/08/08 11:24:08;;;;;;;7.50;1.95;;;17.50;99.90;;;;;;4952210;28;20039;-89
2023/08/08 11:26:35;;;;;;;5.22;1.35;;;17.60;99.90;;;;;;4957780;28;20097;-88
2023/08/08 11:29:02;;;;;;;6.57;1.67;;;17.80;99.90;;;;;;4957198;28;20062;-89
2023/08/08 11:31:29;;;;;;;8.63;2.10;;;17.90;99.90;;;;;;4941655;28;20042;-89
2023/08/08 11:33:56;;;;;;;4.97;1.30;;;18.00;99.90;;;;;;4958006;28;20546;-89
2023/08/08 11:36:23;;;;;;;3.90;1.20;;;18.10;99.90;;;;;;4957901;28;20416;-89
2023/08/08 11:38:50;;;;;;;4.53;1.45;;;18.10;99.90;;;;;;4952689;28;20073;-89
2023/08/08 11:41:19;;;;;;;4.35;1.40;;;18.10;99.90;;;;;;4948654;28;20042;-89
2023/08/08 11:43:46;;;;;;;4.30;1.30;;;18.30;99.90;;;;;;4937813;29;20601;-89
2023/08/08 11:46:15;;;;;;;9.10;2.20;;;18.30;99.90;;;;;;4938007;29;20039;-89
2023/08/08 11:48:41;;;;;;;8.60;1.60;;;18.40;99.90;;;;;;4953765;28;20526;-89
2023/08/08 11:51:08;;;;;;;6.50;1.50;;;18.50;99.90;;;;;;4938869;29;20051;-89
2023/08/08 11:53:35;;;;;;;7.10;1.65;;;18.70;99.90;;;;;;4939522;29;20497;-89
2023/08/08 11:56:03;;;;;;;7.30;1.70;;;18.80;99.90;;;;;;4938842;29;20049;-89
2023/08/08 11:58:30;;;;;;;7.75;1.77;;;18.80;99.90;;;;;;4938312;29;20047;-89
2023/08/08 12:00:57;;;;;;;5.72;1.50;;;18.50;99.90;;;;;;4939035;29;20043;-89
2023/08/08 12:03:24;;;;;;;6.65;1.95;;;17.90;99.90;;;;;;4938377;29;20043;-90
2023/08/08 12:05:51;;;;;;;4.40;1.13;;;17.50;99.90;;;;;;4938683;29;20047;-89
2023/08/08 12:08:21;;;;;;;6.13;1.63;;;17.10;99.90;;;;;;4937470;29;20075;-88
2023/08/08 12:10:54;;;;;;;7.47;1.88;;;17.10;99.90;;;;;;4938884;29;20035;-89
2023/08/08 12:13:26;;;;;;;6.07;1.38;;;17.30;99.90;;;;;;4938467;29;20044;-88
2023/08/08 12:15:53;;;;;;;7.22;1.88;;;17.50;99.90;;;;;;4938149;29;20078;-88
2023/08/08 12:18:19;;;;;;;7.38;1.80;;;17.60;99.90;;;;;;4937638;29;20047;-89
2023/08/08 12:20:45;;;;;;;6.20;1.35;;;17.80;99.90;;;;;;4938665;29;20051;-88
2023/08/08 12:23:12;;;;;;;8.13;2.00;;;18.00;99.90;;;;;;4937941;29;20058;-88
2023/08/08 12:25:38;;;;;;;11.73;2.05;;;18.20;99.90;;;;;;4938348;29;20567;-88
2023/08/08 12:28:04;;;;;;;8.55;2.10;;;18.50;99.90;;;;;;4937525;29;20063;-88
2023/08/08 12:30:31;;;;;;;7.93;1.90;;;18.70;99.90;;;;;;4953975;28;20074;-89
2023/08/08 12:32:57;;;;;;;7.97;1.88;;;18.60;99.90;;;;;;4938413;29;20492;-88
2023/08/08 12:35:22;;;;;;;7.55;1.65;;;18.60;99.90;;;;;;4956221;28;20109;-88
2023/08/08 12:37:48;;;;;;;9.07;1.90;;;18.60;99.90;;;;;;4940193;28;20504;-88
2023/08/08 12:40:14;;;;;;;7.03;2.22;;;18.50;99.90;;;;;;4957082;28;20134;-88
2023/08/08 12:42:39;;;;;;;7.90;1.80;;;18.60;99.90;;;;;;4941167;28;20038;-88